Selah, Washington
Current Conditions -  °F | °C
As of 3:56 AM on Wednesday 28 Jan 2015 (Local Time) from K1YT Reporting Station
Moderate Fog Moderate Fog  
Wind Chill: 28°   Ceiling: 200
Heat Index: 28°   Visibility: 0.37mi
Dew Point: 28°   Wind: 1mph
Humidity: 100%   Direction: 290°WNW
Pressure: 30.27"   Gusts: NA
Location:  46.65°N, 120.53°W
Report Text: K1YT 281156Z AUTO 29001KT 3/8SM FZFG VV002 M02/M02 A3027 RMK AO2 VIS 3/8V2 CIG 001V003 SLPNO T10211021 10013 21022 52016
Loading
Personal Weather Stations






























Interactive Weather Map New forecast layout! Learn more

10-Day Weather Forecast

Advertisements
Track Severe Weather on mobile